SWA1352 KMIA-KMDW
Flight info
| Callsign | SWA1352 |
|---|---|
| Flight time | N/A |
| Altitude | 38000 |
| Route | HURCN4 KPASA Q118 JAMIZ JOHNN Q118 THRSR Q79 IIU DROSE FISSK7 |
| Aircraft | B737/M-SADE2E3GIJ4RWZ/LB1D1 |
Departure
| Time | 2026-04-30 22:04 |
|---|---|
| Airport | Miami International Airport (KMIA) |
Arrival
| Time | N/A |
|---|---|
| Airport | Chicago Midway International Airport (KMDW) |
| Time | Latitude | Longitude | Altitude | Speed | Heading |
|---|---|---|---|---|---|
| 2026-04-30 21:46 | 25.79148 | -80.27952 | 14 ft | 0 kts | 121° |
| 2026-04-30 21:52 | 25.79157 | -80.27969 | 14 ft | 4 kts | 121° |
| 2026-04-30 21:53 | 25.79172 | -80.27994 | 17 ft | 4 kts | 130° |
| 2026-04-30 21:53 | 25.79191 | -80.28011 | 15 ft | 4 kts | 179° |
| 2026-04-30 21:53 | 25.79199 | -80.28010 | 17 ft | 0 kts | 207° |
| 2026-04-30 21:56 | 25.79161 | -80.28031 | 15 ft | 10 kts | 207° |
| 2026-04-30 21:57 | 25.79091 | -80.28069 | 14 ft | 11 kts | 209° |
| 2026-04-30 21:57 | 25.79053 | -80.28129 | 14 ft | 10 kts | 258° |
| 2026-04-30 21:57 | 25.79075 | -80.28199 | 15 ft | 10 kts | 301° |
| 2026-04-30 21:57 | 25.79109 | -80.28262 | 14 ft | 9 kts | 306° |
| 2026-04-30 21:58 | 25.79144 | -80.28323 | 14 ft | 10 kts | 299° |
| 2026-04-30 21:58 | 25.79187 | -80.28392 | 14 ft | 12 kts | 322° |
| 2026-04-30 21:58 | 25.79251 | -80.28473 | 14 ft | 16 kts | 299° |
| 2026-04-30 21:58 | 25.79311 | -80.28591 | 14 ft | 18 kts | 300° |
| 2026-04-30 21:59 | 25.79372 | -80.28710 | 14 ft | 18 kts | 300° |
| 2026-04-30 21:59 | 25.79431 | -80.28826 | 14 ft | 17 kts | 299° |
| 2026-04-30 21:59 | 25.79488 | -80.28938 | 14 ft | 16 kts | 300° |
| 2026-04-30 22:00 | 25.79604 | -80.29164 | 14 ft | 18 kts | 299° |
| 2026-04-30 22:00 | 25.79731 | -80.29413 | 14 ft | 19 kts | 300° |
| 2026-04-30 22:00 | 25.79799 | -80.29545 | 14 ft | 20 kts | 300° |
| 2026-04-30 22:01 | 25.79869 | -80.29683 | 14 ft | 21 kts | 300° |
| 2026-04-30 22:01 | 25.79932 | -80.29830 | 14 ft | 21 kts | 295° |
| 2026-04-30 22:01 | 25.79970 | -80.29942 | 12 ft | 10 kts | 285° |
| 2026-04-30 22:01 | 25.79974 | -80.29955 | 12 ft | 0 kts | 286° |
| 2026-04-30 22:03 | 25.79981 | -80.29982 | 14 ft | 10 kts | 286° |
| 2026-04-30 22:03 | 25.80024 | -80.30064 | 12 ft | 13 kts | 345° |
| 2026-04-30 22:03 | 25.80076 | -80.30012 | 12 ft | 12 kts | 87° |
| 2026-04-30 22:03 | 25.80088 | -80.29721 | 13 ft | 71 kts | 87° |
| 2026-04-30 22:04 | 25.80121 | -80.28931 | 16 ft | 131 kts | 87° |
| 2026-04-30 22:04 | 25.80174 | -80.27754 | 103 ft | 168 kts | 87° |
| 2026-04-30 22:04 | 25.80344 | -80.25110 | 1158 ft | 181 kts | 89° |
| 2026-04-30 22:05 | 25.80424 | -80.23702 | 1829 ft | 184 kts | 91° |
| 2026-04-30 22:05 | 25.80473 | -80.22197 | 2131 ft | 213 kts | 91° |
| 2026-04-30 22:05 | 25.80520 | -80.20433 | 2395 ft | 238 kts | 90° |
| 2026-04-30 22:05 | 25.80666 | -80.18510 | 2640 ft | 268 kts | 74° |
| 2026-04-30 22:06 | 25.81642 | -80.16687 | 3235 ft | 278 kts | 39° |
| 2026-04-30 22:06 | 25.85156 | -80.15731 | 4699 ft | 270 kts | 357° |
| 2026-04-30 22:06 | 25.87030 | -80.15720 | 4939 ft | 270 kts | 357° |
| 2026-04-30 22:07 | 25.88943 | -80.15708 | 4993 ft | 277 kts | 354° |
| 2026-04-30 22:07 | 25.90806 | -80.16130 | 5006 ft | 273 kts | 339° |
| 2026-04-30 22:07 | 25.92603 | -80.16798 | 4977 ft | 271 kts | 339° |
| 2026-04-30 22:07 | 25.94393 | -80.17445 | 4974 ft | 269 kts | 339° |
| 2026-04-30 22:08 | 25.96161 | -80.18071 | 5071 ft | 267 kts | 340° |
| 2026-04-30 22:08 | 25.97906 | -80.18836 | 5472 ft | 272 kts | 324° |
| 2026-04-30 22:08 | 25.99224 | -80.20271 | 6484 ft | 263 kts | 301° |
| 2026-04-30 22:08 | 26.00019 | -80.22114 | 7230 ft | 268 kts | 292° |
| 2026-04-30 22:09 | 26.00724 | -80.24054 | 8032 ft | 271 kts | 291° |
| 2026-04-30 22:09 | 26.01414 | -80.26007 | 8961 ft | 273 kts | 291° |
| 2026-04-30 22:09 | 26.02114 | -80.27988 | 9809 ft | 278 kts | 291° |
| 2026-04-30 22:09 | 26.02830 | -80.30003 | 10583 ft | 282 kts | 291° |
| 2026-04-30 22:10 | 26.03557 | -80.32038 | 11427 ft | 284 kts | 292° |
| 2026-04-30 22:10 | 26.04291 | -80.34088 | 12256 ft | 287 kts | 292° |
| 2026-04-30 22:10 | 26.04793 | -80.35486 | 12817 ft | 289 kts | 292° |
| 2026-04-30 22:10 | 26.05566 | -80.37575 | 13548 ft | 293 kts | 296° |
| 2026-04-30 22:11 | 26.08240 | -80.41100 | 13966 ft | 307 kts | 316° |
| 2026-04-30 22:11 | 26.09817 | -80.42694 | 14002 ft | 307 kts | 317° |
| 2026-04-30 22:11 | 26.11420 | -80.44288 | 14530 ft | 310 kts | 317° |
| 2026-04-30 22:12 | 26.12995 | -80.45860 | 15479 ft | 306 kts | 317° |
| 2026-04-30 22:12 | 26.14576 | -80.47449 | 16361 ft | 307 kts | 317° |
| 2026-04-30 22:12 | 26.16163 | -80.49056 | 17158 ft | 311 kts | 316° |
| 2026-04-30 22:12 | 26.17766 | -80.50687 | 17949 ft | 314 kts | 316° |
| 2026-04-30 22:13 | 26.19381 | -80.52337 | 18686 ft | 316 kts | 316° |
| 2026-04-30 22:13 | 26.21012 | -80.54007 | 19343 ft | 321 kts | 316° |
| 2026-04-30 22:13 | 26.22661 | -80.55698 | 19993 ft | 325 kts | 316° |
| 2026-04-30 22:13 | 26.24332 | -80.57413 | 20658 ft | 329 kts | 316° |
| 2026-04-30 22:14 | 26.26022 | -80.59150 | 21311 ft | 333 kts | 316° |
| 2026-04-30 22:14 | 26.27713 | -80.60889 | 21938 ft | 337 kts | 316° |
| 2026-04-30 22:14 | 26.29467 | -80.62693 | 22573 ft | 341 kts | 316° |
| 2026-04-30 22:14 | 26.31196 | -80.64474 | 23192 ft | 345 kts | 316° |
| 2026-04-30 22:15 | 26.32967 | -80.66298 | 23748 ft | 349 kts | 316° |
| 2026-04-30 22:15 | 26.34785 | -80.68170 | 24303 ft | 352 kts | 316° |
| 2026-04-30 22:15 | 26.36562 | -80.70002 | 24861 ft | 354 kts | 316° |
| 2026-04-30 22:15 | 26.38376 | -80.71873 | 25417 ft | 357 kts | 316° |
| 2026-04-30 22:16 | 26.40208 | -80.73763 | 25962 ft | 360 kts | 316° |
| 2026-04-30 22:16 | 26.42051 | -80.75665 | 26500 ft | 363 kts | 316° |
| 2026-04-30 22:17 | 26.47674 | -80.81475 | 28053 ft | 372 kts | 316° |
| 2026-04-30 22:17 | 26.49580 | -80.83446 | 28565 ft | 375 kts | 316° |
| 2026-04-30 22:17 | 26.53545 | -80.87311 | 29581 ft | 382 kts | 319° |
| 2026-04-30 22:18 | 26.55616 | -80.89180 | 30057 ft | 385 kts | 319° |
| 2026-04-30 22:18 | 26.59821 | -80.92940 | 30942 ft | 388 kts | 319° |
| 2026-04-30 22:19 | 26.64043 | -80.96747 | 31765 ft | 392 kts | 319° |
| 2026-04-30 22:19 | 26.66167 | -80.98674 | 32157 ft | 394 kts | 319° |
| 2026-04-30 22:19 | 26.70435 | -81.02557 | 32902 ft | 398 kts | 319° |
| 2026-04-30 22:20 | 26.72585 | -81.04516 | 33259 ft | 399 kts | 319° |
| 2026-04-30 22:20 | 26.76910 | -81.08463 | 33927 ft | 403 kts | 319° |
| 2026-04-30 22:20 | 26.79087 | -81.10450 | 34206 ft | 404 kts | 319° |
| 2026-04-30 22:21 | 26.81268 | -81.12441 | 34512 ft | 405 kts | 320° |
| 2026-04-30 22:21 | 26.83448 | -81.14433 | 34800 ft | 405 kts | 320° |
| 2026-04-30 22:21 | 26.85636 | -81.16434 | 35077 ft | 406 kts | 320° |
| 2026-04-30 22:21 | 26.87825 | -81.18436 | 35333 ft | 407 kts | 320° |
| 2026-04-30 22:22 | 26.90023 | -81.20448 | 35576 ft | 408 kts | 320° |
| 2026-04-30 22:22 | 26.92224 | -81.22464 | 35825 ft | 409 kts | 320° |
| 2026-04-30 22:22 | 26.94428 | -81.24483 | 36060 ft | 410 kts | 320° |
| 2026-04-30 22:22 | 26.96636 | -81.26508 | 36293 ft | 411 kts | 320° |
| 2026-04-30 22:23 | 26.98844 | -81.28533 | 36535 ft | 411 kts | 320° |
| 2026-04-30 22:23 | 27.01022 | -81.30531 | 36858 ft | 408 kts | 320° |
| 2026-04-30 22:23 | 27.03213 | -81.32541 | 37241 ft | 405 kts | 321° |
| 2026-04-30 22:23 | 27.05481 | -81.34393 | 37565 ft | 404 kts | 328° |
| 2026-04-30 22:24 | 27.07916 | -81.35958 | 37844 ft | 403 kts | 329° |
| 2026-04-30 22:24 | 27.10370 | -81.37489 | 37903 ft | 407 kts | 329° |
| 2026-04-30 22:24 | 27.15365 | -81.40611 | 37918 ft | 415 kts | 329° |
| 2026-04-30 22:25 | 27.20431 | -81.43816 | 37915 ft | 419 kts | 329° |
| 2026-04-30 22:25 | 27.25506 | -81.47044 | 37917 ft | 419 kts | 329° |
| 2026-04-30 22:26 | 27.33121 | -81.51890 | 37917 ft | 419 kts | 330° |
| 2026-04-30 22:27 | 27.38465 | -81.54524 | 37921 ft | 420 kts | 336° |
| 2026-04-30 22:27 | 27.46594 | -81.58170 | 37921 ft | 419 kts | 336° |
| 2026-04-30 22:28 | 27.54704 | -81.61855 | 37917 ft | 418 kts | 335° |
| 2026-04-30 22:29 | 27.65474 | -81.66785 | 37916 ft | 417 kts | 335° |
| 2026-04-30 22:31 | 27.84292 | -81.75425 | 37933 ft | 417 kts | 335° |
| 2026-04-30 22:32 | 27.97711 | -81.81606 | 37935 ft | 416 kts | 335° |
| 2026-04-30 22:33 | 28.11124 | -81.87802 | 37933 ft | 416 kts | 335° |
| 2026-04-30 22:34 | 28.19020 | -81.91835 | 37925 ft | 413 kts | 324° |
| 2026-04-30 22:35 | 28.23720 | -81.95566 | 37942 ft | 412 kts | 323° |
| 2026-04-30 22:36 | 28.35462 | -82.04926 | 37942 ft | 412 kts | 323° |
| 2026-04-30 22:37 | 28.44864 | -82.12385 | 37935 ft | 412 kts | 323° |
| 2026-04-30 22:38 | 28.54238 | -82.19839 | 37938 ft | 411 kts | 323° |
| 2026-04-30 22:39 | 28.61228 | -82.25409 | 37925 ft | 410 kts | 323° |
| 2026-04-30 22:40 | 28.75209 | -82.36582 | 37926 ft | 409 kts | 323° |
| 2026-04-30 22:41 | 28.86820 | -82.45888 | 37935 ft | 407 kts | 323° |
| 2026-04-30 22:43 | 29.00704 | -82.57051 | 37931 ft | 407 kts | 324° |
| 2026-04-30 22:44 | 29.09945 | -82.64501 | 37929 ft | 406 kts | 323° |
| 2026-04-30 22:45 | 29.23791 | -82.75696 | 37924 ft | 405 kts | 323° |
| 2026-04-30 22:47 | 29.37541 | -82.86852 | 37919 ft | 404 kts | 323° |
| 2026-04-30 22:48 | 29.46729 | -82.94328 | 37909 ft | 403 kts | 323° |
| 2026-04-30 22:49 | 29.53718 | -82.99381 | 37889 ft | 395 kts | 334° |
| 2026-04-30 22:49 | 29.61322 | -83.02940 | 37904 ft | 392 kts | 334° |
| 2026-04-30 22:51 | 29.76402 | -83.10082 | 37905 ft | 391 kts | 334° |
| 2026-04-30 22:52 | 29.83965 | -83.13689 | 37911 ft | 394 kts | 334° |
| 2026-04-30 22:53 | 29.94128 | -83.18545 | 37911 ft | 397 kts | 334° |
| 2026-04-30 22:53 | 30.00940 | -83.21806 | 37912 ft | 399 kts | 334° |
| 2026-04-30 22:55 | 30.13772 | -83.27961 | 37910 ft | 400 kts | 333° |
| 2026-04-30 22:56 | 30.24029 | -83.32894 | 37911 ft | 399 kts | 333° |
| 2026-04-30 22:57 | 30.36793 | -83.39060 | 37904 ft | 397 kts | 333° |
| 2026-04-30 22:58 | 30.46958 | -83.43985 | 37901 ft | 395 kts | 332° |
| 2026-04-30 22:59 | 30.62099 | -83.51342 | 37892 ft | 393 kts | 332° |